Eeklo, Belgium
Current Conditions -  °F | °C
As of 2:55 PM on Wednesday 28 Jan 2015 (Local Time) from EHFS Reporting Station
Haze Haze  
Wind Chill:   Ceiling: 700
Heat Index:   Visibility: 2.1mi
Dew Point:   Wind: 35mph
Humidity: 93%   Direction: 210°SSW
Pressure: 29.41"   Gusts: NA
Location:  51.19°N, 3.56°E
Report Text: EHFS 281355Z AUTO 21030KT 3400 BR SCT006/// BKN007/// BKN008///07/06 Q0996
Loading
Personal Weather Stations






























Interactive Weather Map New forecast layout! Learn more

10-Day Weather Forecast

Advertisements
Track Severe Weather on mobile